sensor_id;sensor_type;location;lat;lon;timestamp;pressure;altitude;pressure_sealevel;temperature;humidity
18988;BME280;5494;51.796;10.952;2023-05-29T00:01:45;99437.69;;;14.29;83.80
18988;BME280;5494;51.796;10.952;2023-05-29T00:04:14;99441.75;;;14.18;83.37
18988;BME280;5494;51.796;10.952;2023-05-29T00:06:42;99444.81;;;14.11;83.55
18988;BME280;5494;51.796;10.952;2023-05-29T00:09:10;99443.41;;;14.05;84.23
18988;BME280;5494;51.796;10.952;2023-05-29T00:11:38;99430.75;;;13.98;84.83
18988;BME280;5494;51.796;10.952;2023-05-29T00:14:07;99430.28;;;13.91;85.07
18988;BME280;5494;51.796;10.952;2023-05-29T00:16:35;99432.31;;;13.86;86.28
18988;BME280;5494;51.796;10.952;2023-05-29T00:19:04;99429.28;;;13.78;87.42
18988;BME280;5494;51.796;10.952;2023-05-29T00:21:33;99429.47;;;13.75;87.79
18988;BME280;5494;51.796;10.952;2023-05-29T00:24:02;99427.94;;;13.71;87.61
18988;BME280;5494;51.796;10.952;2023-05-29T00:26:30;99423.41;;;13.59;88.26
18988;BME280;5494;51.796;10.952;2023-05-29T00:28:58;99428.06;;;13.54;89.19
18988;BME280;5494;51.796;10.952;2023-05-29T00:31:26;99422.75;;;13.55;89.29
18988;BME280;5494;51.796;10.952;2023-05-29T00:33:55;99422.75;;;13.55;89.18
18988;BME280;5494;51.796;10.952;2023-05-29T00:36:23;99431.59;;;13.53;89.01
18988;BME280;5494;51.796;10.952;2023-05-29T00:38:53;99424.41;;;13.56;89.02
18988;BME280;5494;51.796;10.952;2023-05-29T00:41:21;99426.63;;;13.48;89.55
18988;BME280;5494;51.796;10.952;2023-05-29T00:43:49;99427.22;;;13.37;90.48
18988;BME280;5494;51.796;10.952;2023-05-29T00:46:17;99437.66;;;13.53;90.57
18988;BME280;5494;51.796;10.952;2023-05-29T00:48:48;99440.94;;;13.57;89.85
18988;BME280;5494;51.796;10.952;2023-05-29T00:51:17;99444.56;;;13.54;89.22
18988;BME280;5494;51.796;10.952;2023-05-29T00:53:46;99442.97;;;13.52;89.53
18988;BME280;5494;51.796;10.952;2023-05-29T00:56:17;99443.53;;;13.57;89.08
18988;BME280;5494;51.796;10.952;2023-05-29T00:58:49;99442.31;;;13.48;89.17
18988;BME280;5494;51.796;10.952;2023-05-29T01:01:18;99450.03;;;13.50;88.97
18988;BME280;5494;51.796;10.952;2023-05-29T01:03:48;99451.56;;;13.38;89.27
18988;BME280;5494;51.796;10.952;2023-05-29T01:06:16;99439.09;;;13.27;89.90
18988;BME280;5494;51.796;10.952;2023-05-29T01:08:44;99451.53;;;13.22;90.82
18988;BME280;5494;51.796;10.952;2023-05-29T01:11:26;99447.19;;;13.38;90.08
18988;BME280;5494;51.796;10.952;2023-05-29T01:14:00;99444.81;;;13.34;90.26
18988;BME280;5494;51.796;10.952;2023-05-29T01:16:36;99460.41;;;13.20;90.92
18988;BME280;5494;51.796;10.952;2023-05-29T01:19:26;99455.78;;;13.40;89.43
18988;BME280;5494;51.796;10.952;2023-05-29T01:22:11;99461.66;;;13.28;89.41
18988;BME280;5494;51.796;10.952;2023-05-29T01:24:50;99466.81;;;13.46;87.93
18988;BME280;5494;51.796;10.952;2023-05-29T01:27:28;99464.00;;;13.49;86.87
18988;BME280;5494;51.796;10.952;2023-05-29T01:29:59;99469.09;;;13.52;86.61
18988;BME280;5494;51.796;10.952;2023-05-29T01:32:30;99467.72;;;13.45;86.83
18988;BME280;5494;51.796;10.952;2023-05-29T01:34:58;99471.09;;;13.31;87.25
18988;BME280;5494;51.796;10.952;2023-05-29T01:37:26;99483.19;;;13.16;88.65
18988;BME280;5494;51.796;10.952;2023-05-29T01:39:55;99485.81;;;13.16;88.86
18988;BME280;5494;51.796;10.952;2023-05-29T01:42:26;99486.34;;;13.06;89.83
18988;BME280;5494;51.796;10.952;2023-05-29T01:44:57;99489.44;;;13.14;90.17
18988;BME280;5494;51.796;10.952;2023-05-29T01:47:26;99484.47;;;13.25;88.85
18988;BME280;5494;51.796;10.952;2023-05-29T01:49:55;99490.09;;;13.17;89.29
18988;BME280;5494;51.796;10.952;2023-05-29T01:52:24;99487.09;;;13.08;89.63
18988;BME280;5494;51.796;10.952;2023-05-29T01:54:52;99490.53;;;12.92;91.89
18988;BME280;5494;51.796;10.952;2023-05-29T01:57:20;99493.03;;;12.94;91.94
18988;BME280;5494;51.796;10.952;2023-05-29T01:59:50;99490.22;;;12.98;91.43
18988;BME280;5494;51.796;10.952;2023-05-29T02:02:21;99500.66;;;12.81;92.63
18988;BME280;5494;51.796;10.952;2023-05-29T02:04:49;99499.06;;;12.79;94.14
18988;BME280;5494;51.796;10.952;2023-05-29T02:07:18;99500.19;;;12.73;94.07
18988;BME280;5494;51.796;10.952;2023-05-29T02:09:47;99499.34;;;12.73;95.45
18988;BME280;5494;51.796;10.952;2023-05-29T02:12:15;99506.13;;;12.77;95.80
18988;BME280;5494;51.796;10.952;2023-05-29T02:14:43;99499.22;;;12.76;95.97
18988;BME280;5494;51.796;10.952;2023-05-29T02:17:12;99501.06;;;12.74;96.19
18988;BME280;5494;51.796;10.952;2023-05-29T02:19:41;99501.38;;;12.68;95.99
18988;BME280;5494;51.796;10.952;2023-05-29T02:22:09;99508.22;;;12.70;96.97
18988;BME280;5494;51.796;10.952;2023-05-29T02:24:37;99502.38;;;12.65;96.68
18988;BME280;5494;51.796;10.952;2023-05-29T02:27:06;99506.66;;;12.66;97.30
18988;BME280;5494;51.796;10.952;2023-05-29T02:29:34;99512.50;;;12.71;96.51
18988;BME280;5494;51.796;10.952;2023-05-29T02:32:02;99504.53;;;12.57;96.73
18988;BME280;5494;51.796;10.952;2023-05-29T02:34:34;99502.06;;;12.54;96.94
18988;BME280;5494;51.796;10.952;2023-05-29T02:37:04;99505.06;;;12.63;96.77
18988;BME280;5494;51.796;10.952;2023-05-29T02:39:32;99503.91;;;12.52;96.96
18988;BME280;5494;51.796;10.952;2023-05-29T02:42:00;99512.25;;;12.58;96.21
18988;BME280;5494;51.796;10.952;2023-05-29T02:44:28;99509.81;;;12.55;95.90
18988;BME280;5494;51.796;10.952;2023-05-29T02:46:56;99509.75;;;12.57;96.27
18988;BME280;5494;51.796;10.952;2023-05-29T02:49:23;99530.69;;;12.55;96.58
18988;BME280;5494;51.796;10.952;2023-05-29T02:51:53;99528.53;;;12.46;96.56
18988;BME280;5494;51.796;10.952;2023-05-29T02:54:23;99530.66;;;12.38;97.46
18988;BME280;5494;51.796;10.952;2023-05-29T02:56:52;99530.66;;;12.38;97.93
18988;BME280;5494;51.796;10.952;2023-05-29T02:59:20;99534.88;;;12.41;97.46
18988;BME280;5494;51.796;10.952;2023-05-29T03:01:48;99536.34;;;12.29;97.80
18988;BME280;5494;51.796;10.952;2023-05-29T03:04:17;99533.25;;;12.21;98.94
18988;BME280;5494;51.796;10.952;2023-05-29T03:06:45;99540.00;;;12.25;98.26
18988;BME280;5494;51.796;10.952;2023-05-29T03:09:15;99529.25;;;12.31;97.39
18988;BME280;5494;51.796;10.952;2023-05-29T03:11:43;99533.38;;;12.18;97.85
18988;BME280;5494;51.796;10.952;2023-05-29T03:14:11;99536.47;;;12.26;98.28
18988;BME280;5494;51.796;10.952;2023-05-29T03:16:39;99536.41;;;12.28;97.21
18988;BME280;5494;51.796;10.952;2023-05-29T03:19:08;99546.06;;;12.26;97.45
18988;BME280;5494;51.796;10.952;2023-05-29T03:21:36;99543.53;;;12.24;97.24
18988;BME280;5494;51.796;10.952;2023-05-29T03:24:06;99547.84;;;12.42;95.41
18988;BME280;5494;51.796;10.952;2023-05-29T03:26:36;99550.09;;;12.50;94.05
18988;BME280;5494;51.796;10.952;2023-05-29T03:29:04;99545.56;;;12.53;93.94
18988;BME280;5494;51.796;10.952;2023-05-29T03:31:33;99547.78;;;12.61;92.43
18988;BME280;5494;51.796;10.952;2023-05-29T03:34:02;99552.47;;;12.54;92.62
18988;BME280;5494;51.796;10.952;2023-05-29T03:36:35;99545.19;;;12.61;92.89
18988;BME280;5494;51.796;10.952;2023-05-29T03:39:04;99539.34;;;12.73;91.32
18988;BME280;5494;51.796;10.952;2023-05-29T03:41:33;99551.06;;;12.82;90.91
18988;BME280;5494;51.796;10.952;2023-05-29T03:44:04;99551.94;;;12.82;91.38
18988;BME280;5494;51.796;10.952;2023-05-29T03:46:32;99548.47;;;12.82;90.07
18988;BME280;5494;51.796;10.952;2023-05-29T03:49:01;99552.22;;;12.93;90.03
18988;BME280;5494;51.796;10.952;2023-05-29T03:51:30;99550.22;;;12.98;89.54
18988;BME280;5494;51.796;10.952;2023-05-29T03:53:58;99547.91;;;13.27;87.97
18988;BME280;5494;51.796;10.952;2023-05-29T03:56:26;99545.53;;;13.55;85.02
18988;BME280;5494;51.796;10.952;2023-05-29T03:58:55;99549.56;;;13.92;81.51
18988;BME280;5494;51.796;10.952;2023-05-29T04:01:24;99551.44;;;14.06;80.49
18988;BME280;5494;51.796;10.952;2023-05-29T04:03:54;99552.69;;;14.30;78.34
18988;BME280;5494;51.796;10.952;2023-05-29T04:06:22;99551.13;;;14.57;76.06
18988;BME280;5494;51.796;10.952;2023-05-29T04:08:51;99548.69;;;14.84;74.37
18988;BME280;5494;51.796;10.952;2023-05-29T04:11:19;99548.34;;;15.05;71.91
18988;BME280;5494;51.796;10.952;2023-05-29T04:13:49;99555.50;;;15.59;69.65
18988;BME280;5494;51.796;10.952;2023-05-29T04:16:17;99552.97;;;15.99;66.78
18988;BME280;5494;51.796;10.952;2023-05-29T04:18:46;99553.28;;;16.21;64.28
18988;BME280;5494;51.796;10.952;2023-05-29T04:21:14;99561.97;;;16.63;63.16
18988;BME280;5494;51.796;10.952;2023-05-29T04:23:42;99559.41;;;17.01;60.54
18988;BME280;5494;51.796;10.952;2023-05-29T04:26:11;99554.47;;;17.34;59.02
18988;BME280;5494;51.796;10.952;2023-05-29T04:28:39;99554.69;;;17.69;57.12
18988;BME280;5494;51.796;10.952;2023-05-29T04:31:09;99556.59;;;18.03;56.04
18988;BME280;5494;51.796;10.952;2023-05-29T04:33:41;99551.94;;;18.31;54.10
18988;BME280;5494;51.796;10.952;2023-05-29T04:36:12;99556.78;;;18.48;53.28
18988;BME280;5494;51.796;10.952;2023-05-29T04:38:44;99551.47;;;18.96;52.24
18988;BME280;5494;51.796;10.952;2023-05-29T04:41:14;99551.28;;;19.21;50.97
18988;BME280;5494;51.796;10.952;2023-05-29T04:43:42;99563.16;;;19.38;50.23
18988;BME280;5494;51.796;10.952;2023-05-29T04:46:10;99560.69;;;19.58;49.79
18988;BME280;5494;51.796;10.952;2023-05-29T04:48:39;99557.53;;;19.87;48.84
18988;BME280;5494;51.796;10.952;2023-05-29T04:51:09;99560.19;;;19.98;48.30
18988;BME280;5494;51.796;10.952;2023-05-29T04:53:39;99569.03;;;20.08;47.81
18988;BME280;5494;51.796;10.952;2023-05-29T04:56:08;99565.00;;;19.82;47.59
18988;BME280;5494;51.796;10.952;2023-05-29T04:58:37;99571.56;;;19.87;47.97
18988;BME280;5494;51.796;10.952;2023-05-29T05:01:05;99573.88;;;19.81;47.96
18988;BME280;5494;51.796;10.952;2023-05-29T05:03:36;99575.88;;;20.11;47.33
18988;BME280;5494;51.796;10.952;2023-05-29T05:06:04;99566.59;;;20.38;46.59
18988;BME280;5494;51.796;10.952;2023-05-29T05:08:35;99571.28;;;20.67;46.13
18988;BME280;5494;51.796;10.952;2023-05-29T05:11:05;99567.22;;;21.04;45.54
18988;BME280;5494;51.796;10.952;2023-05-29T05:13:33;99564.63;;;21.65;43.69
18988;BME280;5494;51.796;10.952;2023-05-29T05:16:01;99566.31;;;21.66;43.46
18988;BME280;5494;51.796;10.952;2023-05-29T05:18:30;99569.56;;;22.10;41.92
18988;BME280;5494;51.796;10.952;2023-05-29T05:21:03;99569.94;;;22.74;40.66
18988;BME280;5494;51.796;10.952;2023-05-29T05:23:34;99573.34;;;23.23;39.56
18988;BME280;5494;51.796;10.952;2023-05-29T05:26:32;99568.09;;;23.60;39.05
18988;BME280;5494;51.796;10.952;2023-05-29T05:29:00;99575.50;;;24.38;37.09
18988;BME280;5494;51.796;10.952;2023-05-29T05:31:30;99569.72;;;24.78;36.18
18988;BME280;5494;51.796;10.952;2023-05-29T05:33:58;99581.38;;;24.95;35.46
18988;BME280;5494;51.796;10.952;2023-05-29T05:36:26;99579.50;;;25.39;34.53
18988;BME280;5494;51.796;10.952;2023-05-29T05:39:00;99583.41;;;25.52;34.36
18988;BME280;5494;51.796;10.952;2023-05-29T05:41:29;99582.66;;;25.60;34.54
18988;BME280;5494;51.796;10.952;2023-05-29T05:43:59;99585.25;;;25.52;34.19
18988;BME280;5494;51.796;10.952;2023-05-29T05:46:39;99567.59;;;26.19;33.20
18988;BME280;5494;51.796;10.952;2023-05-29T05:49:07;99572.81;;;26.37;33.26
18988;BME280;5494;51.796;10.952;2023-05-29T05:51:36;99565.84;;;26.52;32.31
18988;BME280;5494;51.796;10.952;2023-05-29T05:54:04;99574.78;;;25.84;33.48
18988;BME280;5494;51.796;10.952;2023-05-29T05:56:32;99570.13;;;25.27;34.26
18988;BME280;5494;51.796;10.952;2023-05-29T05:59:01;99565.97;;;26.26;33.01
18988;BME280;5494;51.796;10.952;2023-05-29T06:01:30;99563.53;;;27.14;31.57
18988;BME280;5494;51.796;10.952;2023-05-29T06:03:58;99557.81;;;27.25;31.77
18988;BME280;5494;51.796;10.952;2023-05-29T06:06:27;99560.94;;;27.61;31.32
18988;BME280;5494;51.796;10.952;2023-05-29T06:08:55;99565.00;;;28.27;30.20
18988;BME280;5494;51.796;10.952;2023-05-29T06:11:23;99568.78;;;28.40;29.90
18988;BME280;5494;51.796;10.952;2023-05-29T06:13:52;99564.91;;;28.66;29.52
18988;BME280;5494;51.796;10.952;2023-05-29T06:16:28;99575.03;;;27.14;31.87
18988;BME280;5494;51.796;10.952;2023-05-29T06:18:57;99574.50;;;26.78;32.67
18988;BME280;5494;51.796;10.952;2023-05-29T06:21:26;99574.03;;;26.91;32.67
18988;BME280;5494;51.796;10.952;2023-05-29T06:23:55;99573.53;;;26.79;32.65
18988;BME280;5494;51.796;10.952;2023-05-29T06:26:23;99580.50;;;27.37;31.95
18988;BME280;5494;51.796;10.952;2023-05-29T06:28:53;99576.38;;;26.11;33.40
18988;BME280;5494;51.796;10.952;2023-05-29T06:31:22;99574.69;;;26.69;32.96
18988;BME280;5494;51.796;10.952;2023-05-29T06:33:52;99576.03;;;27.21;31.30
18988;BME280;5494;51.796;10.952;2023-05-29T06:36:21;99585.16;;;26.46;32.21
18988;BME280;5494;51.796;10.952;2023-05-29T06:38:51;99585.41;;;25.76;33.53
18988;BME280;5494;51.796;10.952;2023-05-29T06:41:20;99579.41;;;25.74;34.01
18988;BME280;5494;51.796;10.952;2023-05-29T06:43:49;99579.66;;;26.55;33.30
18988;BME280;5494;51.796;10.952;2023-05-29T06:46:20;99572.84;;;27.18;32.12
18988;BME280;5494;51.796;10.952;2023-05-29T06:48:48;99578.38;;;27.00;31.66
18988;BME280;5494;51.796;10.952;2023-05-29T06:51:18;99584.75;;;25.23;34.87
18988;BME280;5494;51.796;10.952;2023-05-29T06:53:46;99590.72;;;24.18;36.41
18988;BME280;5494;51.796;10.952;2023-05-29T06:56:15;99584.69;;;25.40;35.91
18988;BME280;5494;51.796;10.952;2023-05-29T06:58:44;99590.94;;;24.70;35.91
18988;BME280;5494;51.796;10.952;2023-05-29T07:01:13;99591.31;;;24.57;37.52
18988;BME280;5494;51.796;10.952;2023-05-29T07:03:52;99596.75;;;25.78;35.47
18988;BME280;5494;51.796;10.952;2023-05-29T07:06:22;99588.50;;;26.56;33.55
18988;BME280;5494;51.796;10.952;2023-05-29T07:08:50;99590.16;;;26.57;33.83
18988;BME280;5494;51.796;10.952;2023-05-29T07:11:18;99597.13;;;26.42;33.55
18988;BME280;5494;51.796;10.952;2023-05-29T07:13:46;99607.22;;;25.02;35.54
18988;BME280;5494;51.796;10.952;2023-05-29T07:16:15;99600.88;;;25.03;36.44
18988;BME280;5494;51.796;10.952;2023-05-29T07:18:50;99603.44;;;25.57;35.93
18988;BME280;5494;51.796;10.952;2023-05-29T07:21:18;99606.47;;;24.92;35.63
18988;BME280;5494;51.796;10.952;2023-05-29T07:23:49;99609.63;;;25.14;35.89
18988;BME280;5494;51.796;10.952;2023-05-29T07:26:18;99601.31;;;25.60;35.81
18988;BME280;5494;51.796;10.952;2023-05-29T07:28:48;99599.72;;;26.76;33.22
18988;BME280;5494;51.796;10.952;2023-05-29T07:31:17;99607.38;;;26.79;34.13
18988;BME280;5494;51.796;10.952;2023-05-29T07:33:47;99607.34;;;26.46;34.04
18988;BME280;5494;51.796;10.952;2023-05-29T07:36:16;99610.25;;;26.19;34.48
18988;BME280;5494;51.796;10.952;2023-05-29T07:38:46;99616.69;;;25.48;35.42
18988;BME280;5494;51.796;10.952;2023-05-29T07:41:16;99612.69;;;26.04;34.82
18988;BME280;5494;51.796;10.952;2023-05-29T07:43:52;99609.63;;;26.25;35.14
18988;BME280;5494;51.796;10.952;2023-05-29T07:46:22;99615.66;;;25.93;34.79
18988;BME280;5494;51.796;10.952;2023-05-29T07:48:59;99624.38;;;25.77;35.68
18988;BME280;5494;51.796;10.952;2023-05-29T07:51:28;99618.69;;;26.14;35.36
18988;BME280;5494;51.796;10.952;2023-05-29T07:53:57;99624.22;;;26.21;35.00
18988;BME280;5494;51.796;10.952;2023-05-29T07:56:27;99624.81;;;26.33;34.76
18988;BME280;5494;51.796;10.952;2023-05-29T07:58:56;99629.56;;;25.87;35.51
18988;BME280;5494;51.796;10.952;2023-05-29T08:01:24;99630.81;;;26.01;35.10
18988;BME280;5494;51.796;10.952;2023-05-29T08:03:53;99632.47;;;25.42;36.46
18988;BME280;5494;51.796;10.952;2023-05-29T08:06:30;99623.84;;;25.48;36.89
18988;BME280;5494;51.796;10.952;2023-05-29T08:09:01;99622.81;;;25.67;36.01
18988;BME280;5494;51.796;10.952;2023-05-29T08:11:31;99630.38;;;25.54;36.81
18988;BME280;5494;51.796;10.952;2023-05-29T08:13:59;99629.28;;;25.90;36.55
18988;BME280;5494;51.796;10.952;2023-05-29T08:16:27;99628.19;;;26.09;36.22
18988;BME280;5494;51.796;10.952;2023-05-29T08:18:56;99632.81;;;25.99;36.24
18988;BME280;5494;51.796;10.952;2023-05-29T08:21:24;99631.06;;;26.23;36.13
18988;BME280;5494;51.796;10.952;2023-05-29T08:23:53;99635.22;;;26.18;35.37
18988;BME280;5494;51.796;10.952;2023-05-29T08:26:21;99631.59;;;25.85;36.35
18988;BME280;5494;51.796;10.952;2023-05-29T08:28:50;99631.00;;;24.86;37.41
18988;BME280;5494;51.796;10.952;2023-05-29T08:31:18;99636.22;;;25.57;37.21
18988;BME280;5494;51.796;10.952;2023-05-29T08:33:47;99627.72;;;26.13;36.58
18988;BME280;5494;51.796;10.952;2023-05-29T08:36:16;99631.38;;;25.78;36.62
18988;BME280;5494;51.796;10.952;2023-05-29T08:38:47;99635.78;;;25.96;36.75
18988;BME280;5494;51.796;10.952;2023-05-29T08:41:21;99628.41;;;26.23;36.20
18988;BME280;5494;51.796;10.952;2023-05-29T08:43:56;99636.31;;;25.99;36.55
18988;BME280;5494;51.796;10.952;2023-05-29T08:46:27;99624.47;;;26.36;36.48
18988;BME280;5494;51.796;10.952;2023-05-29T08:48:58;99624.22;;;26.21;36.02
18988;BME280;5494;51.796;10.952;2023-05-29T08:51:31;99618.97;;;26.37;35.68
18988;BME280;5494;51.796;10.952;2023-05-29T08:54:01;99623.66;;;25.67;37.05
18988;BME280;5494;51.796;10.952;2023-05-29T08:56:32;99621.50;;;26.05;36.81
18988;BME280;5494;51.796;10.952;2023-05-29T08:59:02;99618.69;;;26.56;36.02
18988;BME280;5494;51.796;10.952;2023-05-29T09:01:34;99622.72;;;26.18;36.14
18988;BME280;5494;51.796;10.952;2023-05-29T09:04:03;99616.38;;;26.61;35.98
18988;BME280;5494;51.796;10.952;2023-05-29T09:06:31;99618.91;;;27.28;35.09
18988;BME280;5494;51.796;10.952;2023-05-29T09:09:00;99618.72;;;27.62;33.45
18988;BME280;5494;51.796;10.952;2023-05-29T09:11:28;99621.06;;;27.49;33.94
18988;BME280;5494;51.796;10.952;2023-05-29T09:13:57;99636.94;;;25.16;35.74
18988;BME280;5494;51.796;10.952;2023-05-29T09:16:28;99633.69;;;23.11;37.78
18988;BME280;5494;51.796;10.952;2023-05-29T09:19:05;99632.91;;;22.42;39.42
18988;BME280;5494;51.796;10.952;2023-05-29T09:21:34;99631.38;;;22.29;41.27
18988;BME280;5494;51.796;10.952;2023-05-29T09:24:03;99631.47;;;22.77;39.77
18988;BME280;5494;51.796;10.952;2023-05-29T09:26:32;99638.84;;;22.15;41.46
18988;BME280;5494;51.796;10.952;2023-05-29T09:29:02;99629.09;;;22.74;41.11
18988;BME280;5494;51.796;10.952;2023-05-29T09:31:35;99633.50;;;23.88;39.23
18988;BME280;5494;51.796;10.952;2023-05-29T09:34:05;99624.44;;;24.63;37.78
18988;BME280;5494;51.796;10.952;2023-05-29T09:36:33;99619.84;;;25.44;35.97
18988;BME280;5494;51.796;10.952;2023-05-29T09:39:04;99629.75;;;25.85;35.25
18988;BME280;5494;51.796;10.952;2023-05-29T09:41:45;99625.06;;;26.13;34.33
18988;BME280;5494;51.796;10.952;2023-05-29T09:44:15;99630.16;;;25.73;34.42
18988;BME280;5494;51.796;10.952;2023-05-29T09:46:48;99635.94;;;24.09;37.98
18988;BME280;5494;51.796;10.952;2023-05-29T09:49:23;99631.28;;;24.83;37.54
18988;BME280;5494;51.796;10.952;2023-05-29T09:51:53;99642.59;;;25.90;35.77
18988;BME280;5494;51.796;10.952;2023-05-29T09:54:26;99645.09;;;24.33;37.42
18988;BME280;5494;51.796;10.952;2023-05-29T09:56:57;99636.72;;;24.91;36.28
18988;BME280;5494;51.796;10.952;2023-05-29T09:59:29;99644.47;;;25.46;35.78
18988;BME280;5494;51.796;10.952;2023-05-29T10:02:02;99640.88;;;25.55;36.17
18988;BME280;5494;51.796;10.952;2023-05-29T10:04:31;99641.25;;;25.94;34.35
18988;BME280;5494;51.796;10.952;2023-05-29T10:07:05;99628.03;;;26.52;34.08
18988;BME280;5494;51.796;10.952;2023-05-29T10:09:41;99632.41;;;24.45;36.63
18988;BME280;5494;51.796;10.952;2023-05-29T10:12:12;99629.13;;;24.33;38.25
18988;BME280;5494;51.796;10.952;2023-05-29T10:14:43;99635.97;;;25.25;36.51
18988;BME280;5494;51.796;10.952;2023-05-29T10:17:15;99634.56;;;25.30;36.25
18988;BME280;5494;51.796;10.952;2023-05-29T10:19:49;99635.69;;;25.71;36.19
18988;BME280;5494;51.796;10.952;2023-05-29T10:22:21;99637.56;;;25.35;36.69
18988;BME280;5494;51.796;10.952;2023-05-29T10:24:52;99637.78;;;24.36;37.47
18988;BME280;5494;51.796;10.952;2023-05-29T10:27:21;99634.19;;;24.90;36.19
18988;BME280;5494;51.796;10.952;2023-05-29T10:29:53;99631.44;;;24.64;37.19
18988;BME280;5494;51.796;10.952;2023-05-29T10:32:35;99631.59;;;24.08;37.90
18988;BME280;5494;51.796;10.952;2023-05-29T10:35:12;99631.31;;;23.08;40.16
18988;BME280;5494;51.796;10.952;2023-05-29T10:37:50;99627.50;;;23.49;39.82
18988;BME280;5494;51.796;10.952;2023-05-29T10:40:24;99627.22;;;24.16;39.32
18988;BME280;5494;51.796;10.952;2023-05-29T10:42:53;99632.00;;;23.29;39.49
18988;BME280;5494;51.796;10.952;2023-05-29T10:45:51;99629.59;;;22.39;40.65
18988;BME280;5494;51.796;10.952;2023-05-29T10:48:43;99620.31;;;22.15;42.39
18988;BME280;5494;51.796;10.952;2023-05-29T10:51:26;99605.97;;;21.87;43.21
18988;BME280;5494;51.796;10.952;2023-05-29T10:53:54;99605.50;;;22.03;43.76
18988;BME280;5494;51.796;10.952;2023-05-29T10:56:29;99604.69;;;22.81;42.72
18988;BME280;5494;51.796;10.952;2023-05-29T10:58:59;99603.53;;;23.12;42.95
18988;BME280;5494;51.796;10.952;2023-05-29T11:01:30;99606.50;;;22.21;43.94
18988;BME280;5494;51.796;10.952;2023-05-29T11:04:31;99608.16;;;22.03;44.68
18988;BME280;5494;51.796;10.952;2023-05-29T11:07:00;99601.09;;;22.13;45.14
18988;BME280;5494;51.796;10.952;2023-05-29T11:09:35;99605.78;;;22.97;43.14
18988;BME280;5494;51.796;10.952;2023-05-29T11:12:15;99601.66;;;23.41;42.01
18988;BME280;5494;51.796;10.952;2023-05-29T11:15:01;99608.50;;;23.53;41.86
18988;BME280;5494;51.796;10.952;2023-05-29T11:17:43;99612.63;;;23.09;42.42
18988;BME280;5494;51.796;10.952;2023-05-29T11:20:36;99607.31;;;22.81;42.50
18988;BME280;5494;51.796;10.952;2023-05-29T11:23:06;99611.25;;;22.27;43.37
18988;BME280;5494;51.796;10.952;2023-05-29T11:25:37;99623.81;;;21.34;45.56
18988;BME280;5494;51.796;10.952;2023-05-29T11:28:05;99616.84;;;21.33;46.38
18988;BME280;5494;51.796;10.952;2023-05-29T11:30:43;99615.88;;;21.34;46.01
18988;BME280;5494;51.796;10.952;2023-05-29T11:33:22;99609.59;;;22.16;44.50
18988;BME280;5494;51.796;10.952;2023-05-29T11:35:58;99602.41;;;22.66;42.58
18988;BME280;5494;51.796;10.952;2023-05-29T11:38:28;99607.97;;;22.44;42.31
18988;BME280;5494;51.796;10.952;2023-05-29T11:40:56;99612.72;;;22.00;44.03
18988;BME280;5494;51.796;10.952;2023-05-29T11:43:26;99613.25;;;21.94;43.19
18988;BME280;5494;51.796;10.952;2023-05-29T11:45:54;99611.38;;;21.85;44.25
18988;BME280;5494;51.796;10.952;2023-05-29T11:48:22;99612.78;;;22.20;43.18
18988;BME280;5494;51.796;10.952;2023-05-29T11:50:51;99615.66;;;22.66;43.29
18988;BME280;5494;51.796;10.952;2023-05-29T11:53:21;99607.41;;;23.17;40.95
18988;BME280;5494;51.796;10.952;2023-05-29T11:55:49;99614.53;;;23.17;41.41
18988;BME280;5494;51.796;10.952;2023-05-29T11:58:17;99615.41;;;23.08;41.50
18988;BME280;5494;51.796;10.952;2023-05-29T12:00:48;99607.41;;;22.69;42.20
18988;BME280;5494;51.796;10.952;2023-05-29T12:03:17;99614.66;;;22.38;43.50
18988;BME280;5494;51.796;10.952;2023-05-29T12:05:48;99614.47;;;22.11;45.18
18988;BME280;5494;51.796;10.952;2023-05-29T12:08:23;99615.91;;;21.64;45.82
18988;BME280;5494;51.796;10.952;2023-05-29T12:10:52;99625.44;;;21.25;46.59
18988;BME280;5494;51.796;10.952;2023-05-29T12:13:21;99614.72;;;21.47;47.23
18988;BME280;5494;51.796;10.952;2023-05-29T12:15:54;99604.41;;;22.15;45.38
18988;BME280;5494;51.796;10.952;2023-05-29T12:18:24;99604.06;;;22.38;44.58
18988;BME280;5494;51.796;10.952;2023-05-29T12:20:57;99598.16;;;22.16;43.94
18988;BME280;5494;51.796;10.952;2023-05-29T12:23:28;99600.94;;;21.53;45.87
18988;BME280;5494;51.796;10.952;2023-05-29T12:25:57;99605.19;;;21.66;45.63
18988;BME280;5494;51.796;10.952;2023-05-29T12:28:26;99588.91;;;21.40;45.25
18988;BME280;5494;51.796;10.952;2023-05-29T12:30:59;99594.38;;;21.48;44.69
18988;BME280;5494;51.796;10.952;2023-05-29T12:33:29;99586.22;;;21.91;44.71
18988;BME280;5494;51.796;10.952;2023-05-29T12:36:06;99592.50;;;22.59;44.06
18988;BME280;5494;51.796;10.952;2023-05-29T12:38:46;99580.03;;;23.17;41.76
18988;BME280;5494;51.796;10.952;2023-05-29T12:41:26;99586.16;;;23.37;42.10
18988;BME280;5494;51.796;10.952;2023-05-29T12:43:55;99588.31;;;23.14;42.50
18988;BME280;5494;51.796;10.952;2023-05-29T12:46:24;99594.47;;;23.05;42.48
18988;BME280;5494;51.796;10.952;2023-05-29T12:48:54;99596.53;;;23.11;41.42
18988;BME280;5494;51.796;10.952;2023-05-29T12:51:23;99593.34;;;22.59;42.15
18988;BME280;5494;51.796;10.952;2023-05-29T12:53:53;99591.22;;;21.94;43.46
18988;BME280;5494;51.796;10.952;2023-05-29T12:56:22;99591.41;;;21.72;44.50
18988;BME280;5494;51.796;10.952;2023-05-29T12:58:53;99592.53;;;21.69;43.77
18988;BME280;5494;51.796;10.952;2023-05-29T13:01:21;99591.03;;;21.46;45.61
18988;BME280;5494;51.796;10.952;2023-05-29T13:03:50;99589.13;;;21.57;45.94
18988;BME280;5494;51.796;10.952;2023-05-29T13:06:19;99587.41;;;22.27;43.95
18988;BME280;5494;51.796;10.952;2023-05-29T13:08:47;99583.50;;;22.12;41.77
18988;BME280;5494;51.796;10.952;2023-05-29T13:11:16;99584.53;;;22.39;41.84
18988;BME280;5494;51.796;10.952;2023-05-29T13:13:44;99584.25;;;22.62;41.81
18988;BME280;5494;51.796;10.952;2023-05-29T13:16:13;99581.06;;;22.68;41.66
18988;BME280;5494;51.796;10.952;2023-05-29T13:18:41;99577.28;;;22.90;41.36